This is the latest recevied weather packets stored in our database for station/object HG8LXL-2. If no packets are shown the sender has not sent any weather packets the latest 10 day(s).
| Time | Temp. | Humidity | Pressure | Rain* | Wind** | Luminosity | Snow |
|---|---|---|---|---|---|---|---|
| 1778197804 | 22.22° C | 64% | 1012.2 hPa | - | - | - | - |
| 1778197504 | 22.22° C | 64% | 1012.1 hPa | - | - | - | - |
| 1778197204 | 22.22° C | 63% | 1012.3 hPa | - | - | - | - |
| 1778196904 | 22.22° C | 64% | 1012.4 hPa | - | - | - | - |
| 1778196604 | 22.78° C | 63% | 1012.3 hPa | - | - | - | - |
| 1778196304 | 22.78° C | 63% | 1012.3 hPa | - | - | - | - |
| 1778196004 | 24.44° C | 59% | 1012.4 hPa | - | - | - | - |
| 1778195704 | 21.67° C | 67% | 1012.5 hPa | - | - | - | - |
| 1778195404 | 22.22° C | 67% | 1012.5 hPa | - | - | - | - |
| 1778195104 | 22.22° C | 66% | 1012.5 hPa | - | - | - | - |
| 1778194804 | 21.67° C | 67% | 1012.4 hPa | - | - | - | - |
| 1778194504 | 21.67° C | 70% | 1012.4 hPa | - | - | - | - |
| 1778194204 | 21.67° C | 68% | 1012.5 hPa | - | - | - | - |
| 1778193904 | 22.78° C | 64% | 1012.5 hPa | - | - | - | - |
| 1778193607 | 22.22° C | 65% | 1012.5 hPa | - | - | - | - |
| 1778193304 | 22.22° C | 66% | 1012.5 hPa | - | - | - | - |
| 1778193004 | 22.22° C | 67% | 1012.6 hPa | - | - | - | - |
| 1778192704 | 21.67° C | 67% | 1012.5 hPa | - | - | - | - |
| 1778192404 | 21.67° C | 70% | 1012.5 hPa | - | - | - | - |
| 1778192104 | 21.67° C | 67% | 1012.5 hPa | - | - | - | - |
| 1778191804 | 21.67° C | 68% | 1012.4 hPa | - | - | - | - |
| 1778191504 | 22.22° C | 66% | 1012.3 hPa | - | - | - | - |
| 1778191204 | 22.22° C | 67% | 1012.4 hPa | - | - | - | - |
| 1778190904 | 22.22° C | 66% | 1012.5 hPa | - | - | - | - |
| 1778190604 | 22.22° C | 65% | 1012.4 hPa | - | - | - | - |
* Rain since midnight (hover to see other rain measurements)
** Current wind speed in m/s (hover to see current wind gust speed)